Dobrodošli na spletni strani vremenske postaje Senovo. Vse informacije so informativnega značaja, saj vremenska postaja ni del državne mreže meteoroloških postaj. AKTUALNIH OBVESTIL NI.


Sneg/Led Od: 21-02-2018 00:00 Do: 23-02-2018 23:59 Opozorilo za: Sneg/Led Stopnja: Rumena info button
Veter Od: 21-02-2018 00:00 Do: 22-02-2018 23:59 Opozorilo za: Veter Stopnja: Rumena info button

Pogled proti Armezu več informacij Pogled proti Armezu


Lisca več informacij Lisca


Radar strel več informacij blitzortung!


opozorilo za sneg/led več informacij rain snow radar


Obiščite še:

Template documentation
and downloads

And another site



Weather Underground, zgodovina - Tekstovno

Dnevni povzetek za April 14, 2017 Enote:  Angleško    Metrično   Obe
« Predhodni Dan
Naslednji Dan »
Dnevni Tedenski Mesečni Letni Po meri
  Višja: Nižja: Povprečje:
Temperatura: TemperatureC °F 8.6 °F 14.8 °F
Točka rosišča: DewpointC °F 5.2 °F 7.8 °F
Vlažnost: Humidity % 39 % 66 %
Hitrost vetra: WindSpeedKMH mph 0.0 mph 2.3 mph
Sunki vetra: WindSpeedGustKMH mph - -
Veter:- - SSE
Zračni tlak: PressurehPa in 1011.1 in -
Padavine: 4.1 in    
Historical Graphs
 
 
Tabelarni podarki za April 14, 2017
Čas Temperatura Točka rosišča Zračni tlak Veter Hitrost vetra Sunki vetra Vlažnost Intenziteta padavin (urna)
TemperatureC °F DewpointC °F PressurehPa in Calm     Humidity % HourlyPrecipMM in
00:03 12.3 °F 8.4 °F 1014.1 in NNW 0.6 mph 3.2 mph 77 % 0.3 in
00:08 12.2 °F 8.5 °F 1014.1 in NNW 0.2 mph 3.2 mph 78 % 0.3 in
00:13 12.0 °F 8.3 °F 1014.1 in Calm     78 % 0.3 in
00:18 11.7 °F 8.4 °F 1014.1 in Calm     80 % 0.5 in
00:23 11.6 °F 8.4 °F 1014.1 in Calm   1.4 mph 81 % 0.5 in
00:28 11.5 °F 8.6 °F 1014.1 in WNW 0.3 mph 3.5 mph 82 % 0.5 in
00:33 11.4 °F 8.4 °F 1013.1 in WNW 0.6 mph 3.5 mph 82 % 0.5 in
00:38 11.4 °F 8.6 °F 1013.1 in WSW 0.3 mph 3.5 mph 83 % 0.5 in
00:43 11.2 °F 8.4 °F 1013.1 in Calm   2.1 mph 83 % 0.5 in
00:48 11.1 °F 8.5 °F 1014.1 in NNE 1.0 mph 4.3 mph 84 % 0.3 in
00:53 11.0 °F 8.6 °F 1014.1 in NNE 1.4 mph 4.3 mph 85 % 0.3 in
00:58 10.9 °F 8.5 °F 1014.1 in North 1.1 mph 3.5 mph 85 % 0.3 in
01:03 10.9 °F 8.5 °F 1014.1 in North 1.0 mph 2.6 mph 85 % 0.3 in
01:08 10.9 °F 8.5 °F 1014.1 in NNE 0.3 mph 2.1 mph 85 % 0.3 in
01:13 10.8 °F 8.4 °F 1014.1 in NE 0.2 mph 2.1 mph 85 % 0.3 in
01:18 10.8 °F 8.6 °F 1014.1 in NE 0.2 mph 2.1 mph 86 % 0.0 in
01:23 10.7 °F 8.4 °F 1014.1 in Calm     86 % 0.0 in
01:28 10.7 °F 8.4 °F 1014.1 in Calm     86 % 0.0 in
01:33 10.6 °F 8.3 °F 1014.1 in Calm     86 % 0.0 in
01:38 10.6 °F 8.3 °F 1014.1 in Calm     86 % 0.0 in
01:44 10.5 °F 8.4 °F 1014.1 in Calm     87 % 0.3 in
01:49 10.5 °F 8.4 °F 1014.1 in SSW 0.5 mph 2.6 mph 87 % 0.3 in
01:54 10.4 °F 8.3 °F 1014.1 in SSW 0.5 mph 2.6 mph 87 % 0.3 in
01:59 10.4 °F 8.3 °F 1014.1 in Calm   1.4 mph 87 % 0.3 in
02:04 10.3 °F 8.2 °F 1014.1 in Calm   1.4 mph 87 % 0.3 in
02:09 10.3 °F 8.4 °F 1014.1 in Calm     88 % 0.3 in
02:14 10.2 °F 8.3 °F 1014.1 in Calm     88 % 0.3 in
02:19 10.2 °F 8.4 °F 1014.1 in Calm     89 % 0.3 in
02:25 10.1 °F 8.4 °F 1014.1 in Calm     89 % 0.3 in
02:30 10.1 °F 8.4 °F 1014.1 in Calm     89 % 0.3 in
02:35 10.1 °F 8.4 °F 1014.1 in Calm     89 % 0.3 in
02:40 10.0 °F 8.3 °F 1014.1 in Calm     89 % 0.3 in
02:45 9.9 °F 8.5 °F 1014.1 in Calm     91 % 0.0 in
02:50 9.9 °F 8.5 °F 1014.1 in Calm     91 % 0.0 in
02:55 9.8 °F 8.4 °F 1014.1 in Calm     91 % 0.0 in
03:00 9.7 °F 8.3 °F 1014.1 in Calm   3.2 mph 91 % 0.0 in
03:05 9.7 °F 8.3 °F 1014.1 in NNW 1.1 mph 4.3 mph 91 % 0.0 in
03:10 9.6 °F 8.2 °F 1014.1 in NNW 2.7 mph 5.0 mph 91 % 0.0 in
03:15 9.5 °F 8.1 °F 1014.1 in NNW 2.3 mph 5.0 mph 91 % 0.0 in
03:20 9.4 °F 8.0 °F 1014.1 in NW 0.5 mph 4.3 mph 91 % 0.0 in
03:25 9.4 °F 8.2 °F 1014.1 in Calm     92 % 0.0 in
03:30 9.4 °F 8.0 °F 1014.1 in Calm     91 % 0.0 in
03:35 9.3 °F 8.1 °F 1014.1 in NW 1.0 mph 4.7 mph 92 % 0.0 in
03:40 9.3 °F 8.1 °F 1014.1 in NNW 1.3 mph 4.7 mph 92 % 0.0 in
03:45 9.3 °F 8.1 °F 1014.1 in NNW 0.6 mph 4.7 mph 92 % 0.0 in
03:50 9.4 °F 8.2 °F 1014.1 in NW 0.3 mph 4.7 mph 92 % 0.0 in
03:55 9.4 °F 8.2 °F 1014.1 in Calm   3.2 mph 92 % 0.0 in
03:56 9.4 °F 8.2 °F 1014.1 in Calm   3.2 mph 92 % 0.0 in
04:01 9.3 °F 8.1 °F 1014.1 in WNW 0.2 mph 4.0 mph 92 % 0.0 in
04:06 9.4 °F 8.2 °F 1014.1 in WNW 0.3 mph 4.0 mph 92 % 0.0 in
04:11 9.4 °F 8.2 °F 1014.1 in WNW 0.6 mph 3.5 mph 92 % 0.0 in
04:16 9.4 °F 8.2 °F 1014.1 in NW 0.5 mph 2.6 mph 92 % 0.0 in
04:21 9.4 °F 8.2 °F 1014.1 in Calm   1.8 mph 92 % 0.0 in
04:26 9.3 °F 8.1 °F 1014.1 in Calm   1.8 mph 92 % 0.0 in
04:31 9.3 °F 8.1 °F 1014.1 in North 0.3 mph 3.2 mph 92 % 0.0 in
04:36 9.3 °F 8.1 °F 1014.1 in North 1.1 mph 4.3 mph 92 % 0.0 in
04:41 9.2 °F 7.9 °F 1014.1 in NNW 1.0 mph 4.3 mph 92 % 0.0 in
04:46 9.2 °F 7.9 °F 1014.1 in NW 0.6 mph 4.0 mph 92 % 0.0 in
04:51 9.1 °F 7.9 °F 1014.1 in NW 0.5 mph 4.0 mph 92 % 0.0 in
04:56 9.0 °F 7.8 °F 1014.1 in Calm   3.2 mph 92 % 0.0 in
05:01 8.8 °F 7.6 °F 1014.1 in NNW 0.2 mph 3.2 mph 92 % 0.0 in
05:06 8.7 °F 7.5 °F 1014.1 in NW 0.3 mph 4.0 mph 92 % 0.0 in
05:11 8.6 °F 7.4 °F 1014.1 in NW 0.6 mph 4.0 mph 92 % 0.0 in
05:12 8.6 °F 7.4 °F 1014.1 in NW 0.6 mph 4.0 mph 92 % 0.0 in
05:17 8.6 °F 7.4 °F 1014.1 in WNW 0.8 mph 4.0 mph 92 % 0.0 in
05:22 8.6 °F 7.4 °F 1014.1 in WNW 0.6 mph 4.0 mph 92 % 0.0 in
05:27 8.6 °F 7.4 °F 1014.1 in WNW 0.2 mph 2.1 mph 92 % 0.0 in
05:32 8.6 °F 7.4 °F 1014.1 in Calm     92 % 0.0 in
05:37 8.6 °F 7.4 °F 1014.1 in Calm     92 % 0.0 in
05:42 8.6 °F 7.6 °F 1014.1 in Calm     93 % 0.0 in
05:47 8.6 °F 7.6 °F 1014.1 in Calm     93 % 0.0 in
05:52 8.6 °F 7.6 °F 1014.1 in Calm   1.8 mph 93 % 0.0 in
05:57 8.6 °F 7.6 °F 1014.1 in NW 1.0 mph 4.3 mph 93 % 0.0 in
06:02 8.6 °F 7.6 °F 1014.1 in WNW 2.4 mph 5.0 mph 93 % 0.0 in
06:07 8.7 °F 7.6 °F 1014.1 in WNW 1.4 mph 5.0 mph 93 % 0.0 in
06:12 8.7 °F 7.6 °F 1014.1 in WSW 0.3 mph 3.2 mph 93 % 0.0 in
06:17 8.7 °F 7.6 °F 1014.1 in WSW 0.2 mph 2.6 mph 93 % 0.0 in
06:22 8.8 °F 7.7 °F 1014.1 in North 0.3 mph 3.5 mph 93 % 0.0 in
06:27 8.8 °F 7.7 °F 1014.1 in North 0.8 mph 3.5 mph 93 % 0.0 in
06:32 8.8 °F 7.7 °F 1014.1 in North 0.5 mph 3.2 mph 93 % 0.0 in
06:36 8.8 °F 7.7 °F 1014.1 in NNW 0.3 mph 3.5 mph 93 % 0.0 in
06:41 8.8 °F 7.7 °F 1014.1 in NNW 1.3 mph 4.7 mph 93 % 0.0 in
06:42 8.8 °F 7.7 °F 1014.1 in NW 1.8 mph 4.7 mph 93 % 0.0 in
06:47 8.8 °F 7.7 °F 1014.1 in NW 1.9 mph 5.0 mph 93 % 0.0 in
06:52 8.9 °F 7.8 °F 1014.1 in WNW 1.0 mph 5.0 mph 93 % 0.0 in
06:57 8.9 °F 7.8 °F 1014.1 in West 0.5 mph 4.7 mph 93 % 0.0 in
07:02 9.1 °F 8.0 °F 1015.1 in SE 1.3 mph 4.7 mph 93 % 0.0 in
07:07 9.1 °F 8.0 °F 1015.1 in ESE 1.3 mph 4.7 mph 93 % 0.0 in
07:12 9.2 °F 8.1 °F 1015.1 in Calm     93 % 0.0 in
07:17 9.3 °F 8.2 °F 1015.1 in Calm     93 % 0.0 in
07:22 9.4 °F 8.3 °F 1015.1 in Calm     93 % 0.0 in
07:27 9.6 °F 8.5 °F 1015.1 in NW 0.3 mph 4.0 mph 93 % 0.0 in
07:32 9.9 °F 8.7 °F 1015.1 in NNW 0.8 mph 4.0 mph 92 % 0.0 in
07:37 10.0 °F 8.6 °F 1015.1 in NE 0.5 mph 3.5 mph 91 % 0.0 in
07:42 10.2 °F 8.8 °F 1015.1 in Calm   1.8 mph 91 % 0.0 in
07:47 10.5 °F 9.1 °F 1015.1 in Calm   1.8 mph 91 % 0.0 in
07:53 10.6 °F 9.0 °F 1015.1 in ESE 0.2 mph 2.6 mph 90 % 0.0 in
07:57 10.8 °F 9.2 °F 1015.1 in ESE 0.2 mph 2.6 mph 90 % 0.0 in
08:03 11.0 °F 9.3 °F 1015.1 in Calm   4.0 mph 89 % 0.0 in
08:08 11.2 °F 9.4 °F 1015.1 in ENE 0.6 mph 4.0 mph 89 % 0.0 in
08:13 11.6 °F 9.7 °F 1015.1 in East 1.0 mph 4.7 mph 88 % 0.0 in
08:18 11.8 °F 9.6 °F 1015.1 in ESE 0.6 mph 4.7 mph 86 % 0.0 in
08:23 12.2 °F 9.8 °F 1015.1 in East 0.6 mph 4.3 mph 85 % 0.0 in
08:28 12.6 °F 9.8 °F 1015.1 in ENE 0.5 mph 3.2 mph 83 % 0.0 in
08:33 12.8 °F 9.4 °F 1015.1 in NE 0.6 mph 3.2 mph 80 % 0.0 in
08:38 13.0 °F 9.1 °F 1015.1 in NE 0.5 mph 3.2 mph 77 % 0.0 in
08:43 13.1 °F 8.8 °F 1015.1 in Calm     75 % 0.0 in
08:48 13.4 °F 8.8 °F 1014.1 in ESE 0.8 mph 3.5 mph 74 % 0.0 in
08:53 13.7 °F 9.2 °F 1014.1 in ESE 1.6 mph 5.5 mph 74 % 0.0 in
08:58 14.0 °F 9.2 °F 1014.1 in East 2.1 mph 5.8 mph 73 % 0.0 in
09:03 14.1 °F 8.7 °F 1015.1 in ENE 2.3 mph 5.8 mph 70 % 0.0 in
09:08 14.1 °F 8.7 °F 1015.1 in ENE 1.1 mph 4.3 mph 70 % 0.0 in
09:13 14.3 °F 8.7 °F 1015.1 in ENE 0.3 mph 3.5 mph 69 % 0.0 in
09:18 14.5 °F 8.7 °F 1014.1 in ENE 1.1 mph 4.3 mph 68 % 0.0 in
09:23 14.8 °F 8.7 °F 1014.1 in East 1.8 mph 4.3 mph 67 % 0.0 in
09:28 14.9 °F 8.4 °F 1014.1 in ESE 1.8 mph 5.8 mph 65 % 0.0 in
09:33 15.0 °F 8.4 °F 1014.1 in SSE 1.8 mph 5.8 mph 65 % 0.0 in
09:38 15.2 °F 8.7 °F 1014.1 in South 1.1 mph 6.9 mph 65 % 0.0 in
09:43 15.5 °F 8.9 °F 1014.1 in SE 2.6 mph 7.9 mph 65 % 0.0 in
09:48 15.8 °F 9.0 °F 1014.1 in ESE 4.3 mph 7.9 mph 64 % 0.0 in
09:53 16.0 °F 8.7 °F 1014.1 in ESE 3.2 mph 7.2 mph 62 % 0.0 in
09:58 16.1 °F 8.6 °F 1014.1 in SE 2.1 mph 6.9 mph 61 % 0.0 in
10:03 16.2 °F 8.7 °F 1014.1 in SE 2.6 mph 6.9 mph 61 % 0.0 in
10:08 16.3 °F 8.0 °F 1014.1 in East 3.4 mph 6.9 mph 58 % 0.0 in
10:13 16.3 °F 7.5 °F 1014.1 in East 2.7 mph 5.5 mph 56 % 0.0 in
10:18 16.5 °F 7.7 °F 1014.1 in ESE 3.2 mph 10.1 mph 56 % 0.0 in
10:23 16.6 °F 8.3 °F 1014.1 in SE 4.5 mph 11.6 mph 58 % 0.0 in
10:28 16.6 °F 7.8 °F 1014.1 in SSE 4.0 mph 11.6 mph 56 % 0.0 in
10:33 16.6 °F 7.5 °F 1014.1 in East 4.0 mph 10.8 mph 55 % 0.0 in
10:38 16.7 °F 7.3 °F 1014.1 in East 3.9 mph 10.8 mph 54 % 0.0 in
10:43 17.0 °F 7.6 °F 1014.1 in SE 3.5 mph 6.9 mph 54 % 0.0 in
10:48 17.2 °F 7.8 °F 1014.1 in SE 4.7 mph 8.7 mph 54 % 0.0 in
10:53 17.3 °F 7.9 °F 1014.1 in ESE 5.0 mph 8.7 mph 54 % 0.0 in
10:58 17.5 °F 7.8 °F 1014.1 in ESE 5.0 mph 9.0 mph 53 % 0.0 in
11:03 17.4 °F 7.4 °F 1014.1 in East 5.5 mph 12.2 mph 52 % 0.0 in
11:08 17.6 °F 7.3 °F 1014.1 in ESE 5.8 mph 12.2 mph 51 % 0.0 in
11:13 17.7 °F 7.2 °F 1014.1 in ESE 6.1 mph 9.3 mph 50 % 0.0 in
11:18 17.9 °F 7.6 °F 1014.1 in East 6.6 mph 9.7 mph 51 % 0.0 in
11:23 17.9 °F 7.6 °F 1014.1 in East 5.6 mph 9.7 mph 51 % 0.0 in
11:28 17.8 °F 7.2 °F 1014.1 in SSW 5.5 mph 11.9 mph 50 % 0.0 in
11:33 18.1 °F 7.5 °F 1014.1 in SSW 5.3 mph 11.9 mph 50 % 0.0 in
11:38 18.2 °F 7.6 °F 1014.1 in SW 4.0 mph 9.7 mph 50 % 0.0 in
11:43 18.4 °F 7.8 °F 1014.1 in WSW 4.5 mph 9.7 mph 50 % 0.0 in
11:48 18.5 °F 7.9 °F 1013.1 in SW 5.6 mph 10.1 mph 50 % 0.0 in
11:53 18.6 °F 7.4 °F 1013.1 in SSW 5.3 mph 10.1 mph 48 % 0.0 in
11:58 18.7 °F 7.4 °F 1013.1 in SE 4.2 mph 10.1 mph 48 % 0.0 in
12:03 18.8 °F 7.6 °F 1013.1 in East 3.2 mph 5.0 mph 48 % 0.0 in
12:08 18.9 °F 7.3 °F 1013.1 in ESE 2.1 mph 5.0 mph 47 % 0.0 in
12:13 18.8 °F 7.2 °F 1013.1 in ESE 2.1 mph 5.0 mph 47 % 0.0 in
12:19 18.9 °F 7.3 °F 1014.1 in ESE 2.1 mph 5.0 mph 47 % 0.0 in
12:24 19.1 °F 7.2 °F 1014.1 in SSE 1.8 mph 4.7 mph 46 % 0.0 in
12:29 19.2 °F 7.3 °F 1014.1 in ESE 2.7 mph 6.4 mph 46 % 0.0 in
12:34 18.9 °F 6.7 °F 1014.1 in East 3.9 mph 6.4 mph 45 % 0.0 in
12:39 19.0 °F 7.1 °F 1014.1 in ENE 6.1 mph 6.1 mph 46 % 0.0 in
12:44 19.4 °F 7.8 °F 1014.1 in ESE 7.6 mph 7.6 mph 47 % 0.0 in
12:49 19.5 °F 7.6 °F 1014.1 in ESE 7.1 mph 7.1 mph 46 % 0.0 in
12:54 19.7 °F 7.7 °F 1014.1 in SSE 5.5 mph 5.8 mph 46 % 0.0 in
12:59 19.6 °F 7.7 °F 1014.1 in SSE 3.4 mph 5.8 mph 46 % 0.0 in
13:04 19.6 °F 7.3 °F 1014.1 in SE 2.6 mph 4.7 mph 45 % 0.0 in
13:09 19.8 °F 7.5 °F 1014.1 in ESE 1.8 mph 2.1 mph 45 % 0.0 in
13:14 19.8 °F 7.5 °F 1014.1 in ESE 1.8 mph 2.1 mph 45 % 0.0 in
13:19 19.8 °F 7.5 °F 1014.1 in East 3.1 mph 4.3 mph 45 % 0.0 in
13:24 19.9 °F 7.9 °F 1014.1 in ENE 2.9 mph 7.6 mph 46 % 0.0 in
13:29 19.8 °F 7.5 °F 1014.1 in NNE 5.1 mph 10.5 mph 45 % 0.0 in
13:34 20.1 °F 7.8 °F 1013.1 in NE 5.1 mph 10.5 mph 45 % 0.0 in
13:37 20.2 °F 7.6 °F 1013.1 in NE 5.1 mph 9.7 mph 44 % 0.0 in
13:42 20.4 °F 8.1 °F 1013.1 in SE 4.2 mph 7.9 mph 45 % 0.0 in
13:47 20.4 °F 7.7 °F 1013.1 in ESE 7.1 mph 7.1 mph 44 % 0.0 in
13:52 20.1 °F 7.4 °F 1013.1 in East 7.4 mph 7.4 mph 44 % 0.0 in
13:57 20.0 °F 7.4 °F 1013.1 in ENE 4.0 mph 6.4 mph 44 % 0.0 in
14:02 20.3 °F 7.7 °F 1013.1 in ENE 3.9 mph 4.7 mph 44 % 0.0 in
14:07 20.5 °F 7.8 °F 1013.1 in East 4.2 mph 4.7 mph 44 % 0.0 in
14:12 20.6 °F 7.9 °F 1013.1 in SSE 4.3 mph 9.7 mph 44 % 0.0 in
14:17 20.8 °F 7.8 °F 1013.1 in SSE 3.5 mph 9.7 mph 43 % 0.0 in
14:22 20.7 °F 7.7 °F 1013.1 in East 3.2 mph 6.4 mph 43 % 0.0 in
14:27 20.5 °F 7.5 °F 1013.1 in NE 4.0 mph 6.9 mph 43 % 0.0 in
14:32 20.5 °F 7.5 °F 1013.1 in ENE 4.7 mph 9.7 mph 43 % 0.0 in
14:37 20.4 °F 7.1 °F 1013.1 in ENE 5.6 mph 10.5 mph 42 % 0.0 in
14:42 20.4 °F 7.4 °F 1013.1 in NE 5.3 mph 10.5 mph 43 % 0.0 in
14:47 20.5 °F 7.5 °F 1013.1 in NNE 4.0 mph 6.9 mph 43 % 0.0 in
14:52 20.6 °F 7.6 °F 1013.1 in SE 3.7 mph 9.7 mph 43 % 0.0 in
14:57 20.7 °F 7.7 °F 1013.1 in ESE 6.0 mph 10.5 mph 43 % 0.0 in
15:02 20.5 °F 7.2 °F 1013.1 in East 6.1 mph 10.5 mph 42 % 0.0 in
15:07 20.9 °F 7.8 °F 1013.1 in ENE 5.3 mph 10.1 mph 43 % 0.0 in
15:12 21.2 °F 7.8 °F 1013.1 in ESE 6.1 mph 11.9 mph 42 % 0.0 in
15:17 21.4 °F 7.9 °F 1012.1 in ESE 8.2 mph 11.9 mph 42 % 0.0 in
15:22 21.5 °F 8.1 °F 1012.1 in SE 6.0 mph 11.9 mph 42 % 0.0 in
15:27 21.4 °F 7.6 °F 1012.1 in ESE 4.8 mph 11.9 mph 41 % 0.0 in
15:32 21.5 °F 8.1 °F 1012.1 in East 4.2 mph 11.9 mph 42 % 0.0 in
15:38 21.3 °F 7.5 °F 1012.1 in East 4.2 mph 11.9 mph 41 % 0.0 in
15:43 21.0 °F 7.2 °F 1012.1 in East 5.3 mph 11.9 mph 41 % 0.0 in
15:48 20.9 °F 7.5 °F 1011.1 in ENE 6.4 mph 12.6 mph 42 % 0.0 in
15:53 21.1 °F 7.7 °F 1011.1 in NE 5.3 mph 12.6 mph 42 % 0.0 in
15:58 21.2 °F 7.4 °F 1011.1 in ENE 4.7 mph 9.3 mph 41 % 0.0 in
16:03 21.4 °F 7.9 °F 1012.1 in ESE 6.4 mph 13.7 mph 42 % 0.0 in
16:08 21.5 °F 8.1 °F 1012.1 in SE 5.5 mph 13.7 mph 42 % 0.0 in
16:13 21.5 °F 7.7 °F 1012.1 in SE 2.6 mph 7.6 mph 41 % 0.0 in
16:18 21.6 °F 7.8 °F 1012.1 in East 1.6 mph 6.9 mph 41 % 0.0 in
16:23 21.8 °F 8.3 °F 1012.1 in SSE 1.6 mph 9.0 mph 42 % 0.0 in
16:28 21.9 °F 8.4 °F 1012.1 in SSW 2.7 mph 9.0 mph 42 % 0.0 in
16:33 21.9 °F 8.4 °F 1012.1 in South 4.7 mph 9.3 mph 42 % 0.0 in
16:38 21.9 °F 8.1 °F 1012.1 in SE 5.1 mph 9.3 mph 41 % 0.0 in
16:43 21.7 °F 7.5 °F 1012.1 in ESE 6.1 mph 9.3 mph 40 % 0.0 in
16:48 21.8 °F 7.9 °F 1012.1 in East 5.5 mph 7.6 mph 41 % 0.0 in
16:53 21.9 °F 8.1 °F 1012.1 in NNE 4.5 mph 5.8 mph 41 % 0.0 in
16:58 21.9 °F 8.1 °F 1012.1 in NE 5.8 mph 5.8 mph 41 % 0.0 in
17:03 21.8 °F 7.6 °F 1012.1 in NE 5.3 mph 5.8 mph 40 % 0.0 in
17:08 21.7 °F 7.9 °F 1012.1 in NE 1.8 mph 5.8 mph 41 % 0.0 in
17:13 21.7 °F 7.5 °F 1012.1 in ENE 2.4 mph 5.0 mph 40 % 0.0 in
17:18 21.6 °F 7.4 °F 1011.1 in ENE 5.0 mph 5.0 mph 40 % 0.0 in
17:23 21.5 °F 6.9 °F 1011.1 in ENE 5.0 mph 5.0 mph 39 % 0.0 in
17:28 21.5 °F 7.3 °F 1011.1 in ENE 5.0 mph 5.0 mph 40 % 0.0 in
17:33 21.5 °F 7.3 °F 1012.1 in ENE 5.0 mph 5.0 mph 40 % 0.0 in
17:34 21.5 °F 7.3 °F 1012.1 in ENE 5.0 mph 5.0 mph 40 % 0.0 in
17:39 21.5 °F 7.3 °F 1012.1 in ENE 5.0 mph 5.0 mph 40 % 0.0 in
17:44 21.5 °F 7.3 °F 1012.1 in ENE 5.0 mph 5.0 mph 40 % 0.0 in
17:49 21.2 °F 7.1 °F 1012.1 in SE 7.2 mph 10.5 mph 40 % 0.0 in
17:54 21.0 °F 6.9 °F 1012.1 in SE 4.3 mph 10.5 mph 40 % 0.0 in
17:59 20.8 °F 7.1 °F 1012.1 in ESE 3.1 mph 6.1 mph 41 % 0.0 in
18:04 20.4 °F 6.7 °F 1012.1 in ESE 3.4 mph 10.1 mph 41 % 0.0 in
18:05 20.3 °F 6.6 °F 1012.1 in ESE 3.9 mph 10.1 mph 41 % 0.0 in
18:10 20.1 °F 6.4 °F 1012.1 in ESE 5.0 mph 10.5 mph 41 % 0.0 in
18:15 19.9 °F 6.2 °F 1012.1 in SE 4.8 mph 10.5 mph 41 % 0.0 in
18:20 19.7 °F 6.1 °F 1012.1 in SSE 5.3 mph 10.5 mph 41 % 0.0 in
18:25 19.5 °F 5.9 °F 1012.1 in SE 5.8 mph 10.5 mph 41 % 0.0 in
18:30 19.4 °F 5.8 °F 1012.1 in SSE 4.8 mph 9.7 mph 41 % 0.0 in
18:31 19.4 °F 5.8 °F 1012.1 in SSE 4.8 mph 9.7 mph 41 % 0.0 in
18:36 19.2 °F 5.9 °F 1012.1 in South 3.2 mph 9.7 mph 42 % 0.0 in
18:41 19.1 °F 5.9 °F 1012.1 in SE 3.5 mph 7.6 mph 42 % 0.0 in
18:46 19.0 °F 5.8 °F 1012.1 in SE 4.5 mph 7.6 mph 42 % 0.0 in
18:51 18.9 °F 6.1 °F 1012.1 in East 4.0 mph 6.4 mph 43 % 0.0 in
18:56 18.8 °F 5.9 °F 1012.1 in ENE 3.7 mph 6.4 mph 43 % 0.0 in
19:01 18.8 °F 5.6 °F 1012.1 in ENE 3.9 mph 6.4 mph 42 % 0.0 in
19:06 18.6 °F 5.8 °F 1012.1 in East 3.9 mph 6.4 mph 43 % 0.0 in
19:11 18.5 °F 5.7 °F 1012.1 in ENE 2.6 mph 5.0 mph 43 % 0.0 in
19:16 18.2 °F 5.4 °F 1012.1 in ENE 1.1 mph 5.0 mph 43 % 0.0 in
19:21 17.9 °F 5.4 °F 1012.1 in Calm     44 % 0.0 in
19:26 17.7 °F 5.6 °F 1012.1 in Calm     45 % 0.0 in
19:31 17.3 °F 5.2 °F 1012.1 in NNW 0.3 mph 3.2 mph 45 % 0.0 in
19:36 17.0 °F 5.3 °F 1012.1 in NNW 0.3 mph 3.2 mph 46 % 0.0 in
19:41 16.7 °F 5.3 °F 1012.1 in NW 0.2 mph 2.6 mph 47 % 0.0 in
19:46 16.5 °F 5.7 °F 1012.1 in Calm     49 % 0.0 in
19:51 16.1 °F 5.7 °F 1012.1 in Calm     50 % 0.0 in
19:56 15.9 °F 5.5 °F 1012.1 in Calm     50 % 0.0 in
20:01 15.6 °F 5.5 °F 1012.1 in Calm   1.8 mph 51 % 0.0 in
20:06 15.2 °F 5.7 °F 1012.1 in Calm   1.8 mph 53 % 0.0 in
20:11 15.0 °F 5.8 °F 1012.1 in Calm     54 % 0.0 in
20:16 14.8 °F 6.1 °F 1012.1 in NW 0.3 mph 4.3 mph 56 % 0.0 in
20:21 14.8 °F 6.1 °F 1012.1 in NW 2.6 mph 7.2 mph 56 % 0.0 in
20:26 14.7 °F 6.3 °F 1012.1 in NW 1.9 mph 7.2 mph 57 % 0.0 in
20:31 14.5 °F 6.6 °F 1012.1 in Calm   2.1 mph 59 % 0.0 in
20:36 14.4 °F 6.5 °F 1012.1 in WSW 0.5 mph 4.0 mph 59 % 0.0 in
20:41 14.4 °F 6.9 °F 1012.1 in NW 1.6 mph 5.0 mph 61 % 0.0 in
20:46 14.3 °F 6.9 °F 1012.1 in NNW 1.4 mph 5.0 mph 61 % 0.0 in
20:51 14.2 °F 7.0 °F 1012.1 in Calm     62 % 0.0 in
20:56 14.2 °F 7.0 °F 1012.1 in Calm     62 % 0.0 in
21:01 14.1 °F 7.2 °F 1012.1 in NE 0.2 mph 1.4 mph 63 % 0.0 in
21:06 14.0 °F 7.1 °F 1012.1 in NE 0.2 mph 1.4 mph 63 % 0.0 in
21:11 13.8 °F 7.6 °F 1012.1 in Calm     66 % 0.0 in
21:16 13.7 °F 7.2 °F 1012.1 in Calm   1.8 mph 65 % 0.0 in
21:21 13.7 °F 7.2 °F 1012.1 in NNW 0.8 mph 4.7 mph 65 % 0.0 in
21:26 13.5 °F 7.3 °F 1012.1 in NNW 1.0 mph 4.7 mph 66 % 0.0 in
21:32 13.5 °F 7.5 °F 1013.1 in North 0.3 mph 2.6 mph 67 % 0.0 in
21:37 13.4 °F 7.4 °F 1013.1 in North 0.2 mph 2.6 mph 67 % 0.0 in
21:42 13.4 °F 7.6 °F 1013.1 in Calm     68 % 0.0 in
21:47 13.4 °F 7.6 °F 1013.1 in Calm     68 % 0.0 in
21:52 13.4 °F 7.8 °F 1013.1 in West 0.2 mph 3.2 mph 69 % 0.0 in
21:57 13.4 °F 7.6 °F 1013.1 in West 0.5 mph 3.5 mph 68 % 0.0 in
22:02 13.5 °F 7.9 °F 1013.1 in West 0.6 mph 3.5 mph 69 % 0.0 in
22:07 13.5 °F 7.9 °F 1013.1 in NNW 0.5 mph 5.0 mph 69 % 0.0 in
22:12 13.5 °F 8.3 °F 1013.1 in NNW 0.8 mph 5.0 mph 71 % 0.0 in
22:17 13.4 °F 8.4 °F 1014.1 in NNW 1.1 mph 5.0 mph 72 % 0.0 in
22:22 13.4 °F 8.4 °F 1014.1 in NW 0.5 mph 5.5 mph 72 % 0.3 in
22:27 13.6 °F 8.7 °F 1014.1 in NNW 2.3 mph 11.9 mph 72 % 0.3 in
22:32 13.6 °F 9.1 °F 1014.1 in North 4.3 mph 11.9 mph 74 % 0.5 in
22:37 13.6 °F 9.1 °F 1014.1 in NNE 3.7 mph 10.1 mph 74 % 0.8 in
22:42 13.6 °F 9.1 °F 1014.1 in NNE 3.9 mph 10.1 mph 74 % 0.8 in
22:47 13.5 °F 9.6 °F 1014.1 in NNE 3.7 mph 7.9 mph 77 % 1.0 in
22:52 13.5 °F 9.2 °F 1014.1 in NE 3.5 mph 6.9 mph 75 % 1.3 in
22:57 13.4 °F 9.7 °F 1014.1 in ENE 3.7 mph 6.9 mph 78 % 1.8 in
23:02 13.3 °F 9.6 °F 1014.1 in East 3.9 mph 6.9 mph 78 % 2.0 in
23:07 13.2 °F 9.4 °F 1014.1 in East 3.5 mph 6.9 mph 78 % 2.3 in
23:12 13.1 °F 9.3 °F 1014.1 in ENE 3.1 mph 6.9 mph 78 % 2.5 in
23:17 12.9 °F 9.6 °F 1014.1 in NNE 3.7 mph 6.1 mph 80 % 2.3 in
23:22 12.8 °F 9.6 °F 1014.1 in SW 3.7 mph 6.1 mph 81 % 2.5 in
23:27 12.7 °F 9.5 °F 1014.1 in SSE 3.5 mph 6.1 mph 81 % 2.8 in
23:32 12.8 °F 9.6 °F 1014.1 in East 4.3 mph 6.9 mph 81 % 2.8 in
23:37 12.7 °F 9.5 °F 1014.1 in NE 3.9 mph 8.7 mph 81 % 2.8 in
23:42 12.7 °F 9.5 °F 1014.1 in NE 3.9 mph 15.4 mph 81 % 2.8 in
23:47 12.6 °F 9.2 °F 1015.1 in NE 5.0 mph 15.4 mph 80 % 2.5 in
23:52 12.6 °F 9.2 °F 1015.1 in NNE 4.5 mph 7.6 mph 80 % 2.3 in
23:57 12.5 °F 9.2 °F 1015.1 in NNE 3.4 mph 7.6 mph 80 % 1.8 in
Vremenska postaja Senovo
Podatki zbrani iz Weather Underground - 3 mb

Script developed by  Jim McMurry - jmcmurry@mwt.net Adapted for the template by  Wim van der Kuil - Leuven-Template.eu

Vremenski podatki so objavljeni na:

European Weather Network

WeatherCloud

Weather Underground

AWEKAS

HAMweather, WeatherForYou, PWS Weather

MapView

Geostik

Slovenia weather network

Oprema, ki se uporablja:

Vremenski program
Cumulus

Vremenski server
Asus

Cumulus

Asus